Portada
METAR-TAF:

METAR-TAF

Aeroports :

Shenyang, Xina

latitud: 41-48N, longitud: 123-24E, altitud: 35 m

Observació

L'informe es va fer fa 29 minuts, a les 00:30 UTC
Vent 10 kt del Sud
Temperatura 8°C
Humitat 71%
Pressió 1024 hPa
Visibilitat 10 km o més
Cel ennuvolat a una alçada de 4000 ft

METAR: ZYTX 220030Z 17005MPS 9999 BKN040 08/03 Q1024 NOSIG

Hora: 08:59 (00:59 UTC)

Pronòstic

L'informe es va fer fa 5 hores i 54 minuts, a les 19:05 UTC
Pronòstic vàlid del 22 a les 00 UTC al 22 a les 24 UTC
Vent 8 kt del Sud
Visibilitat: 6000 m
Temporalment
l' 22 a les 18 UTC al 22 a les 24 UTC
Visibilitat: 2500 m
Cel ennuvolat a una alçada de 3300 ft
pluja, neu

TAF: ZYTX 211905Z 2200/2224 18004MPS 6000 NSC TX08/2206Z TNM03/22Z TEMPO 2218/2224 2500 -RASN BKN033

Observacions i pronòstics meteorològics de més de 4000 aeroports (METAR i TAF).

Les estacions disponibles són els punts grocs i vermells al mapa.

Posi el ratolí al punt desitjat per veure el nom de l'estació.

Feu clic per veure les observacions i els pronòstics meteorològics.

Per canviar el mapa: feu clic els botons verds amb una creu de color negre per apropar; al botó verd amb un guió per allunyar la imatge; o en les fletxes verdes per a mapes adjacents.


METAR-TAF: